Minna Airport

METAR DNMN TAF DNAA
28 °C
°C
-
°C
2h
Âge
02:16:55
LT
01:16
UTC
0 ft

1.000

2.000

3.000

4.000

5.000

VFR
<?= Yii::t('app', 'Wind direction') ?> <?= Yii::t('app', 'of'); ?>
260°
06:56
Lever du soleil
55%
Humidité
Cisaillement du vent
Fermé/neige
Portée visuelle RWY
Condition RWY
Visibilité vert.
Visibilité min.
CAVOK
Tendance
Correction
Rapport spécial
1009 hPa
QNH
METAR DNMN 272300Z 26002KT CAVOK 28/18 Q1009
Aucun nuage
1 kt
1 kt
02:00
VFR
5 kt
03:00
VFR
5 kt
04:00
VFR
5 kt
05:00
VFR
5 kt
06:00
VFR
5 kt
07:00
VFR
5 kt
08:00
VFR
5 kt
10 km+
Vue
Non
Base cloud
2 kt
Vent
metar-taf.com/DNMN

Metar-Taf.com

Décodeur visuel

Nous et des tiers suivons ton comportement Internet sur notre site Web à l'aide de cookies. Si tu continues, nous supposons que tu es d'accord avec notre Politique en matière de cookies.